Ary, Kentucky
Current Conditions -  °F | °C
As of 4:53 AM on Tuesday 21 Oct 2014 (Local Time) from KJKL Reporting Station
Few Clouds Few Clouds  
Wind Chill: 50°   Ceiling: Unl
Heat Index: 50°   Visibility: 10mi
Dew Point: 47°   Wind: 3mph
Humidity: 89%   Direction: NA
Pressure: 29.94"   Gusts: NA
Location:  37.37°N, 83.15°W
Report Text: KJKL 210853Z AUTO VRB03KT 10SM FEW055 10/08 A2994 RMK AO2 SLP134 60001 T01000083 58007
Loading
Personal Weather Stations






























Interactive Weather Map New forecast layout! Learn more

10-Day Weather Forecast

Advertisements
Track Severe Weather on mobile